createdAt,value
2023-05-05T00:01:03.136Z,10.93
2023-05-05T00:03:30.224Z,10.96
2023-05-05T00:05:58.165Z,11.19
2023-05-05T00:08:25.162Z,11.28
2023-05-05T00:10:53.814Z,11.65
2023-05-05T00:13:21.906Z,11.66
2023-05-05T00:15:50.818Z,11.39
2023-05-05T00:18:19.284Z,11.20
2023-05-05T00:20:47.449Z,11.24
2023-05-05T00:23:15.736Z,11.34
2023-05-05T00:25:42.844Z,11.66
2023-05-05T00:28:10.022Z,11.75
2023-05-05T00:30:37.642Z,11.77
2023-05-05T00:33:04.820Z,11.78
2023-05-05T00:35:31.971Z,11.60
2023-05-05T00:37:59.657Z,11.33
2023-05-05T00:40:26.876Z,11.45
2023-05-05T00:42:54.039Z,11.41
2023-05-05T00:45:21.101Z,11.18
2023-05-05T00:47:51.538Z,10.40
2023-05-05T00:50:30.212Z,10.17
2023-05-05T00:53:01.180Z,10.35
2023-05-05T00:55:31.739Z,10.25
2023-05-05T00:57:59.728Z,10.14
2023-05-05T01:00:27.868Z,10.75
2023-05-05T01:02:56.021Z,11.03
2023-05-05T01:05:24.625Z,10.99
2023-05-05T01:07:58.843Z,10.77
2023-05-05T01:10:37.316Z,10.33
2023-05-05T01:13:46.270Z,10.47
2023-05-05T01:16:24.628Z,10.54
2023-05-05T01:18:58.660Z,10.34
2023-05-05T01:21:56.265Z,10.93
2023-05-05T01:24:32.256Z,11.34
2023-05-05T01:27:18.224Z,11.46
2023-05-05T01:29:57.441Z,11.34
2023-05-05T01:32:30.115Z,11.70
2023-05-05T01:35:10.216Z,11.83
2023-05-05T01:37:52.210Z,12.00
2023-05-05T01:40:25.215Z,11.83
2023-05-05T01:42:55.649Z,11.79
2023-05-05T01:45:27.359Z,12.13
2023-05-05T01:47:56.696Z,12.78
2023-05-05T01:50:28.277Z,12.76
2023-05-05T01:52:56.824Z,12.96
2023-05-05T01:55:26.423Z,13.07
2023-05-05T01:57:55.407Z,12.86
2023-05-05T02:00:25.220Z,12.97
2023-05-05T02:02:55.106Z,13.17
2023-05-05T02:05:24.848Z,13.11
2023-05-05T02:07:55.251Z,12.76
2023-05-05T02:10:22.385Z,12.49
2023-05-05T02:12:52.332Z,12.33
2023-05-05T02:15:22.155Z,12.58
2023-05-05T02:17:54.464Z,12.42
2023-05-05T02:20:24.454Z,12.59
2023-05-05T02:22:51.486Z,12.44
2023-05-05T02:25:18.674Z,12.56
2023-05-05T02:27:48.183Z,12.90
2023-05-05T02:30:18.415Z,13.03
2023-05-05T02:32:54.742Z,12.87
2023-05-05T02:35:27.605Z,12.18
2023-05-05T02:38:02.836Z,11.97
2023-05-05T02:40:35.772Z,12.07
2023-05-05T02:43:08.267Z,12.22
2023-05-05T02:45:35.369Z,12.54
2023-05-05T02:48:07.096Z,12.59
2023-05-05T02:50:38.473Z,12.36
2023-05-05T02:53:32.681Z,12.03
2023-05-05T02:56:20.020Z,12.46
2023-05-05T02:59:04.322Z,12.63
2023-05-05T03:01:57.329Z,12.51
2023-05-05T03:04:32.412Z,12.15
2023-05-05T03:07:07.306Z,12.53
2023-05-05T03:09:41.807Z,12.10
2023-05-05T03:12:12.623Z,11.88
2023-05-05T03:15:02.450Z,11.50
2023-05-05T03:17:33.226Z,11.39
2023-05-05T03:20:03.600Z,11.27
2023-05-05T03:22:37.874Z,11.32
2023-05-05T03:25:09.855Z,11.96
2023-05-05T03:27:37.470Z,12.21
2023-05-05T03:30:05.868Z,11.89
2023-05-05T03:32:35.740Z,11.69
2023-05-05T03:35:02.869Z,12.24
2023-05-05T03:37:33.259Z,12.50
2023-05-05T03:40:00.668Z,12.29
2023-05-05T03:42:27.851Z,11.49
2023-05-05T03:44:55.154Z,11.17
2023-05-05T03:47:24.850Z,10.57
2023-05-05T03:49:53.565Z,10.43
2023-05-05T03:52:20.560Z,10.54
2023-05-05T03:54:47.758Z,10.32
2023-05-05T03:57:14.832Z,10.47
2023-05-05T03:59:41.886Z,10.61
2023-05-05T04:02:09.588Z,10.72
2023-05-05T04:04:36.840Z,10.62
2023-05-05T04:07:03.884Z,10.40
2023-05-05T04:09:30.943Z,10.62
2023-05-05T04:11:58.168Z,10.64
2023-05-05T04:14:25.252Z,10.99
2023-05-05T04:16:52.874Z,11.12
2023-05-05T04:19:20.302Z,11.00
2023-05-05T04:21:47.472Z,11.13
2023-05-05T04:24:14.608Z,11.65
2023-05-05T04:26:42.363Z,12.20
2023-05-05T04:29:09.981Z,13.28
2023-05-05T04:31:37.463Z,13.55
2023-05-05T04:34:05.037Z,13.74
2023-05-05T04:36:32.278Z,12.76
2023-05-05T04:38:59.677Z,13.51
2023-05-05T04:41:28.908Z,13.29
2023-05-05T04:43:57.911Z,13.15
2023-05-05T04:46:25.744Z,13.11
2023-05-05T04:48:52.969Z,13.66
2023-05-05T04:51:20.156Z,13.94
2023-05-05T04:53:47.328Z,14.10
2023-05-05T04:56:14.348Z,13.94
2023-05-05T04:58:41.516Z,13.95
2023-05-05T05:01:08.615Z,14.10
2023-05-05T05:03:36.705Z,14.09
2023-05-05T05:06:04.043Z,14.46
2023-05-05T05:08:31.090Z,14.50
2023-05-05T05:11:00.105Z,14.57
2023-05-05T05:13:27.251Z,14.48
2023-05-05T05:15:54.809Z,14.62
2023-05-05T05:18:21.802Z,14.69
2023-05-05T05:20:50.113Z,15.07
2023-05-05T05:23:17.100Z,15.39
2023-05-05T05:25:46.121Z,15.82
2023-05-05T05:28:15.504Z,16.16
2023-05-05T05:30:48.001Z,16.27
2023-05-05T05:33:15.186Z,16.20
2023-05-05T05:35:43.113Z,16.03
2023-05-05T05:38:10.586Z,16.14
2023-05-05T05:40:38.129Z,15.07
2023-05-05T05:43:05.217Z,15.27
2023-05-05T05:45:33.638Z,14.94
2023-05-05T05:48:03.249Z,14.74
2023-05-05T05:50:30.480Z,14.90
2023-05-05T05:52:58.947Z,15.30
2023-05-05T05:55:27.725Z,15.42
2023-05-05T05:57:55.071Z,15.33
2023-05-05T06:00:22.222Z,15.07
2023-05-05T06:02:56.287Z,15.12
2023-05-05T06:05:27.077Z,15.52
2023-05-05T06:07:54.719Z,16.02
2023-05-05T06:10:28.034Z,15.34
2023-05-05T06:13:03.779Z,16.22
2023-05-05T06:15:32.621Z,15.25
2023-05-05T06:18:01.782Z,14.99
2023-05-05T06:20:28.923Z,15.41
2023-05-05T06:22:56.342Z,15.59
2023-05-05T06:25:24.707Z,15.48
2023-05-05T06:27:52.303Z,15.95
2023-05-05T06:30:19.360Z,15.86
2023-05-05T06:32:46.324Z,16.19
2023-05-05T06:35:13.388Z,16.11
2023-05-05T06:37:40.470Z,16.46
2023-05-05T06:40:08.467Z,17.10
2023-05-05T06:42:36.089Z,17.13
2023-05-05T06:45:05.590Z,16.55
2023-05-05T06:47:32.828Z,16.49
2023-05-05T06:49:59.965Z,17.06
2023-05-05T06:52:26.972Z,17.80
2023-05-05T06:54:54.019Z,16.93
2023-05-05T06:57:21.249Z,17.16
2023-05-05T06:59:48.215Z,18.19
2023-05-05T07:02:15.204Z,18.87
2023-05-05T07:04:44.129Z,18.23
2023-05-05T07:07:11.181Z,17.83
2023-05-05T07:09:38.235Z,17.25
2023-05-05T07:12:05.444Z,17.49
2023-05-05T07:14:32.423Z,17.56
2023-05-05T07:16:59.461Z,16.99
2023-05-05T07:19:26.594Z,17.09
2023-05-05T07:21:53.521Z,17.49
2023-05-05T07:24:20.575Z,17.33
2023-05-05T07:26:47.583Z,17.97
2023-05-05T07:29:14.656Z,18.92
2023-05-05T07:31:41.800Z,19.61
2023-05-05T07:34:08.876Z,19.79
2023-05-05T07:36:35.997Z,19.97
2023-05-05T07:39:03.122Z,20.10
2023-05-05T07:41:30.296Z,18.94
2023-05-05T07:43:57.506Z,18.92
2023-05-05T07:46:24.773Z,18.87
2023-05-05T07:48:51.914Z,18.48
2023-05-05T07:51:18.975Z,18.07
2023-05-05T07:53:46.434Z,18.46
2023-05-05T07:56:13.555Z,18.25
2023-05-05T07:58:41.054Z,18.46
2023-05-05T08:01:11.120Z,19.25
2023-05-05T08:03:38.480Z,19.91
2023-05-05T08:06:12.261Z,19.92
2023-05-05T08:08:39.306Z,19.28
2023-05-05T08:11:06.795Z,18.02
2023-05-05T08:13:34.402Z,17.48
2023-05-05T08:16:01.450Z,17.05
2023-05-05T08:18:28.721Z,17.51
2023-05-05T08:20:55.837Z,17.39
2023-05-05T08:23:22.982Z,17.72
2023-05-05T08:25:50.081Z,18.95
2023-05-05T08:28:17.241Z,19.07
2023-05-05T08:30:44.788Z,19.93
2023-05-05T08:33:11.841Z,21.33
2023-05-05T08:35:39.096Z,21.63
2023-05-05T08:38:06.285Z,20.81
2023-05-05T08:40:37.621Z,21.17
2023-05-05T08:43:05.094Z,21.02
2023-05-05T08:45:32.753Z,20.84
2023-05-05T08:48:05.224Z,20.24
2023-05-05T08:50:33.285Z,19.62
2023-05-05T08:53:15.914Z,19.83
2023-05-05T08:55:56.160Z,20.89
2023-05-05T08:58:28.903Z,21.73
2023-05-05T09:00:57.047Z,20.75
2023-05-05T09:03:27.159Z,21.32
2023-05-05T09:05:54.391Z,20.61
2023-05-05T09:08:22.402Z,21.09
2023-05-05T09:10:51.873Z,21.83
2023-05-05T09:13:19.197Z,23.41
2023-05-05T09:15:46.301Z,22.88
2023-05-05T09:18:13.617Z,22.71
2023-05-05T09:20:42.099Z,22.70
2023-05-05T09:23:11.495Z,23.74
2023-05-05T09:25:39.761Z,24.17
2023-05-05T09:28:12.172Z,24.20
2023-05-05T09:30:40.930Z,24.15
2023-05-05T09:33:08.324Z,24.51
2023-05-05T09:35:53.336Z,23.42
2023-05-05T09:38:21.228Z,24.75
2023-05-05T09:40:53.033Z,25.63
2023-05-05T09:43:21.834Z,23.27
2023-05-05T09:45:49.679Z,21.81
2023-05-05T09:48:31.545Z,21.49
2023-05-05T09:50:59.366Z,22.08
2023-05-05T09:53:27.162Z,21.97
2023-05-05T09:55:59.137Z,22.68
2023-05-05T09:58:27.778Z,22.03
2023-05-05T10:00:56.233Z,21.45
2023-05-05T10:03:24.149Z,20.81
2023-05-05T10:05:53.337Z,20.48
2023-05-05T10:08:31.611Z,21.46
2023-05-05T10:11:01.227Z,20.79
2023-05-05T10:13:29.021Z,20.12
2023-05-05T10:15:58.007Z,19.95
2023-05-05T10:18:27.152Z,20.38
2023-05-05T10:20:57.507Z,19.82
2023-05-05T10:23:28.567Z,20.41
2023-05-05T10:26:05.940Z,20.89
2023-05-05T10:28:55.219Z,20.48
2023-05-05T10:31:33.981Z,20.35
2023-05-05T10:34:06.194Z,19.23
2023-05-05T10:36:34.375Z,19.49
2023-05-05T10:39:03.240Z,20.65
2023-05-05T10:41:32.282Z,20.91
2023-05-05T10:44:02.028Z,21.48
2023-05-05T10:46:30.845Z,20.33
2023-05-05T10:49:13.555Z,19.60
2023-05-05T10:51:43.575Z,19.14
2023-05-05T10:54:21.652Z,19.84
2023-05-05T10:56:49.497Z,20.52
2023-05-05T10:59:38.218Z,21.12
2023-05-05T11:02:28.390Z,19.79
2023-05-05T11:05:21.289Z,19.13
2023-05-05T11:07:50.905Z,19.27
2023-05-05T11:10:23.411Z,18.96
2023-05-05T11:13:10.837Z,19.41
2023-05-05T11:15:38.308Z,20.48
2023-05-05T11:18:07.871Z,20.34
2023-05-05T11:20:36.112Z,20.27
2023-05-05T11:23:03.280Z,21.00
2023-05-05T11:25:37.084Z,21.28
2023-05-05T11:28:16.564Z,20.92
2023-05-05T11:30:56.177Z,20.99
2023-05-05T11:33:33.845Z,21.13
2023-05-05T11:36:06.060Z,20.57
2023-05-05T11:38:36.784Z,20.53
2023-05-05T11:41:33.399Z,20.77
2023-05-05T11:44:13.373Z,20.80
2023-05-05T11:47:01.766Z,21.16
2023-05-05T11:49:30.686Z,20.77
2023-05-05T11:52:03.369Z,21.43
2023-05-05T11:54:31.483Z,22.80
2023-05-05T11:57:05.295Z,23.14
2023-05-05T11:59:33.530Z,21.73
2023-05-05T12:02:01.298Z,21.60
2023-05-05T12:04:28.415Z,21.77
2023-05-05T12:06:55.644Z,22.23
2023-05-05T12:09:24.049Z,22.39
2023-05-05T12:11:53.670Z,22.51
2023-05-05T12:14:21.832Z,21.19
2023-05-05T12:17:04.391Z,22.22
2023-05-05T12:19:33.801Z,23.25
2023-05-05T12:22:01.999Z,25.55
2023-05-05T12:24:32.423Z,25.69
2023-05-05T12:27:09.219Z,24.78
2023-05-05T12:29:36.404Z,23.55
2023-05-05T12:32:04.405Z,21.03
2023-05-05T12:34:32.403Z,21.20
2023-05-05T12:36:59.850Z,22.19
2023-05-05T12:39:39.299Z,23.05
2023-05-05T12:42:07.128Z,22.88
2023-05-05T12:44:38.255Z,23.54
2023-05-05T12:47:05.772Z,23.83
2023-05-05T12:49:53.702Z,24.28
2023-05-05T12:52:21.245Z,24.05
2023-05-05T12:54:54.886Z,24.36
2023-05-05T12:57:22.691Z,23.66
2023-05-05T12:59:50.877Z,23.63
2023-05-05T13:02:18.158Z,23.61
2023-05-05T13:04:53.518Z,22.99
2023-05-05T13:07:22.657Z,21.88
2023-05-05T13:09:50.690Z,21.62
2023-05-05T13:12:18.486Z,22.24
2023-05-05T13:14:46.873Z,22.94
2023-05-05T13:17:14.706Z,23.20
2023-05-05T13:19:42.757Z,22.87
2023-05-05T13:22:10.410Z,22.11
2023-05-05T13:24:49.737Z,21.60
2023-05-05T13:27:19.640Z,21.42
2023-05-05T13:29:46.831Z,20.97
2023-05-05T13:32:14.075Z,21.24
2023-05-05T13:34:42.744Z,21.40
2023-05-05T13:37:09.977Z,20.87
2023-05-05T13:39:37.155Z,20.70
2023-05-05T13:42:04.453Z,20.92
2023-05-05T13:44:31.616Z,20.87
2023-05-05T13:46:58.760Z,21.07
2023-05-05T13:49:26.108Z,22.07
2023-05-05T13:51:53.245Z,21.84
2023-05-05T13:54:20.330Z,21.70
2023-05-05T13:56:47.430Z,22.10
2023-05-05T13:59:14.476Z,22.77
2023-05-05T14:01:41.586Z,22.84
2023-05-05T14:04:08.794Z,22.53
2023-05-05T14:06:36.368Z,22.80
2023-05-05T14:09:06.260Z,22.71
2023-05-05T14:11:33.872Z,22.03
2023-05-05T14:14:00.931Z,22.36
2023-05-05T14:16:28.023Z,21.83
2023-05-05T14:18:55.305Z,22.58
2023-05-05T14:21:22.522Z,22.80
2023-05-05T14:23:49.680Z,22.97
2023-05-05T14:26:16.926Z,23.14
2023-05-05T14:28:44.594Z,23.64
2023-05-05T14:31:12.147Z,23.53
2023-05-05T14:33:39.284Z,23.51
2023-05-05T14:36:06.736Z,23.30
2023-05-05T14:38:33.830Z,23.75
2023-05-05T14:41:01.125Z,23.94
2023-05-05T14:43:28.174Z,23.95
2023-05-05T14:45:55.396Z,23.40
2023-05-05T14:48:22.747Z,23.56
2023-05-05T14:50:50.125Z,23.85
2023-05-05T14:53:19.149Z,23.26
2023-05-05T14:55:46.287Z,23.85
2023-05-05T14:58:13.344Z,23.62
2023-05-05T15:00:40.386Z,22.93
2023-05-05T15:03:07.526Z,23.24
2023-05-05T15:05:35.272Z,23.46
2023-05-05T15:08:02.336Z,24.02
2023-05-05T15:10:29.409Z,23.70
2023-05-05T15:12:56.580Z,22.59
2023-05-05T15:15:23.707Z,22.51
2023-05-05T15:17:50.764Z,22.44
2023-05-05T15:20:17.931Z,22.86
2023-05-05T15:22:44.985Z,22.57
2023-05-05T15:25:14.905Z,22.60
2023-05-05T15:27:42.251Z,22.14
2023-05-05T15:30:09.943Z,22.38
2023-05-05T15:32:37.131Z,22.01
2023-05-05T15:35:04.789Z,21.86
2023-05-05T15:37:32.200Z,21.31
2023-05-05T15:39:59.661Z,21.66
2023-05-05T15:42:26.913Z,21.59
2023-05-05T15:44:53.967Z,21.27
2023-05-05T15:47:21.047Z,21.27
2023-05-05T15:49:48.299Z,21.04
2023-05-05T15:52:15.488Z,21.49
2023-05-05T15:54:42.624Z,21.74
2023-05-05T15:57:09.885Z,21.87
2023-05-05T15:59:36.923Z,21.56
2023-05-05T16:02:04.066Z,21.74
2023-05-05T16:04:31.148Z,21.34
2023-05-05T16:06:58.302Z,21.33
2023-05-05T16:09:25.416Z,21.30
2023-05-05T16:11:54.648Z,21.15
2023-05-05T16:14:21.811Z,21.21
2023-05-05T16:16:49.284Z,21.02
2023-05-05T16:19:16.834Z,20.67
2023-05-05T16:21:44.134Z,20.63
2023-05-05T16:24:16.033Z,20.77
2023-05-05T16:26:43.866Z,20.63
2023-05-05T16:29:11.847Z,20.42
2023-05-05T16:31:39.123Z,20.47
2023-05-05T16:34:06.397Z,20.57
2023-05-05T16:36:33.448Z,20.27
2023-05-05T16:39:00.754Z,20.17
2023-05-05T16:41:27.878Z,20.00
2023-05-05T16:43:54.971Z,19.79
2023-05-05T16:46:22.216Z,19.70
2023-05-05T16:48:49.295Z,19.72
2023-05-05T16:51:16.357Z,19.64
2023-05-05T16:53:43.369Z,19.50
2023-05-05T16:56:13.308Z,19.21
2023-05-05T16:58:40.845Z,19.47
2023-05-05T17:01:08.151Z,19.29
2023-05-05T17:03:36.078Z,19.55
2023-05-05T17:06:03.449Z,19.70
2023-05-05T17:08:30.950Z,19.68
2023-05-05T17:10:58.561Z,19.42
2023-05-05T17:13:25.672Z,19.57
2023-05-05T17:15:52.758Z,19.32
2023-05-05T17:18:21.910Z,19.20
2023-05-05T17:20:50.116Z,18.54
2023-05-05T17:23:17.272Z,18.32
2023-05-05T17:25:44.492Z,18.69
2023-05-05T17:28:11.638Z,18.72
2023-05-05T17:30:38.685Z,18.80
2023-05-05T17:33:05.906Z,18.72
2023-05-05T17:35:33.180Z,19.07
2023-05-05T17:38:00.465Z,19.06
2023-05-05T17:40:27.600Z,19.01
2023-05-05T17:42:54.754Z,18.62
2023-05-05T17:45:21.882Z,18.62
2023-05-05T17:47:48.953Z,18.60
2023-05-05T17:50:16.211Z,18.64
2023-05-05T17:52:45.231Z,18.52
2023-05-05T17:55:12.869Z,18.42
2023-05-05T17:57:40.112Z,18.47
2023-05-05T18:00:09.060Z,18.55
2023-05-05T18:02:42.092Z,18.38
2023-05-05T18:05:09.973Z,18.07
2023-05-05T18:07:38.755Z,17.95
2023-05-05T18:10:10.701Z,18.05
2023-05-05T18:12:37.983Z,17.96
2023-05-05T18:15:05.933Z,17.73
2023-05-05T18:17:33.088Z,17.79
2023-05-05T18:20:00.323Z,17.92
2023-05-05T18:22:27.703Z,17.93
2023-05-05T18:24:59.134Z,17.58
2023-05-05T18:27:27.795Z,17.49
2023-05-05T18:29:55.377Z,17.54
2023-05-05T18:32:22.846Z,17.46
2023-05-05T18:34:50.471Z,17.46
2023-05-05T18:37:17.568Z,17.32
2023-05-05T18:39:45.283Z,16.75
2023-05-05T18:42:13.158Z,16.78
2023-05-05T18:44:40.395Z,16.95
2023-05-05T18:47:08.171Z,17.19
2023-05-05T18:49:35.847Z,17.06
2023-05-05T18:52:03.190Z,17.10
2023-05-05T18:54:30.408Z,17.40
2023-05-05T18:56:57.802Z,17.44
2023-05-05T18:59:24.905Z,17.34
2023-05-05T19:01:52.065Z,16.84
2023-05-05T19:07:07.568Z,17.02
2023-05-05T19:09:36.204Z,16.95
2023-05-05T19:12:03.945Z,16.90
2023-05-05T19:14:31.314Z,16.50
2023-05-05T19:17:01.748Z,16.12
2023-05-05T19:19:29.017Z,15.99
2023-05-05T19:21:56.145Z,15.90
2023-05-05T19:24:23.184Z,16.06
2023-05-05T19:26:50.485Z,16.43
2023-05-05T19:29:17.871Z,16.63
2023-05-05T19:31:45.172Z,16.77
2023-05-05T19:34:12.257Z,16.86
2023-05-05T19:36:39.429Z,16.46
2023-05-05T19:39:06.489Z,16.45
2023-05-05T19:41:35.366Z,16.34
2023-05-05T19:44:03.131Z,16.39
2023-05-05T19:46:30.275Z,15.86
2023-05-05T19:48:57.480Z,14.92
2023-05-05T19:51:24.608Z,14.81
2023-05-05T19:53:51.814Z,14.32
2023-05-05T19:56:19.151Z,14.63
2023-05-05T19:58:57.597Z,14.41
2023-05-05T20:01:25.368Z,14.95
2023-05-05T20:03:55.230Z,15.08
2023-05-05T20:06:22.919Z,15.40
2023-05-05T20:08:50.045Z,15.29
2023-05-05T20:11:17.765Z,15.23
2023-05-05T20:13:44.871Z,15.11
2023-05-05T20:16:12.321Z,15.51
2023-05-05T20:18:40.405Z,15.12
2023-05-05T20:21:07.586Z,13.98
2023-05-05T20:23:34.755Z,14.10
2023-05-05T20:26:02.236Z,14.50
2023-05-05T20:28:31.730Z,14.62
2023-05-05T20:31:00.733Z,14.69
2023-05-05T20:33:30.982Z,14.73
2023-05-05T20:35:58.047Z,15.01
2023-05-05T20:38:25.248Z,15.07
2023-05-05T20:40:52.484Z,15.18
2023-05-05T20:43:19.703Z,15.28
2023-05-05T20:45:46.822Z,14.47
2023-05-05T20:48:13.934Z,14.62
2023-05-05T20:50:42.317Z,14.96
2023-05-05T20:53:10.882Z,15.20
2023-05-05T20:55:37.961Z,15.53
2023-05-05T20:58:07.548Z,15.61
2023-05-05T21:00:34.959Z,15.32
2023-05-05T21:03:05.239Z,14.98
2023-05-05T21:05:32.468Z,15.48
2023-05-05T21:08:01.060Z,15.38
2023-05-05T21:10:29.219Z,15.25
2023-05-05T21:12:56.449Z,15.33
2023-05-05T21:15:23.547Z,14.98
2023-05-05T21:17:51.255Z,14.62
2023-05-05T21:20:18.915Z,14.82
2023-05-05T21:22:46.574Z,14.46
2023-05-05T21:25:14.734Z,14.53
2023-05-05T21:27:41.847Z,14.30
2023-05-05T21:30:11.128Z,14.14
2023-05-05T21:32:42.196Z,13.86
2023-05-05T21:35:09.672Z,13.35
2023-05-05T21:37:40.626Z,13.39
2023-05-05T21:40:13.928Z,13.62
2023-05-05T21:42:44.104Z,13.71
2023-05-05T21:45:12.118Z,13.59
2023-05-05T21:47:39.264Z,13.24
2023-05-05T21:50:07.482Z,13.78
2023-05-05T21:52:34.769Z,14.24
2023-05-05T21:55:02.201Z,14.31
2023-05-05T21:57:29.429Z,14.30
2023-05-05T21:59:56.588Z,14.07
2023-05-05T22:02:23.944Z,14.36
2023-05-05T22:04:51.813Z,14.08
2023-05-05T22:07:19.218Z,13.89
2023-05-05T22:09:46.341Z,13.70
2023-05-05T22:12:13.493Z,13.92
2023-05-05T22:14:40.701Z,14.02
2023-05-05T22:17:07.818Z,14.09
2023-05-05T22:19:34.925Z,13.96
2023-05-05T22:22:02.844Z,13.51
2023-05-05T22:24:30.660Z,14.01
2023-05-05T22:26:58.363Z,14.07
2023-05-05T22:29:25.468Z,14.10
2023-05-05T22:31:52.859Z,14.01
2023-05-05T22:34:21.951Z,13.98
2023-05-05T22:36:49.761Z,14.39
2023-05-05T22:39:18.778Z,14.42
2023-05-05T22:41:46.250Z,14.26
2023-05-05T22:44:13.428Z,13.89
2023-05-05T22:46:41.025Z,13.64
2023-05-05T22:49:08.823Z,13.49
2023-05-05T22:51:36.024Z,13.52
2023-05-05T22:54:03.287Z,13.59
2023-05-05T22:56:30.426Z,13.35
2023-05-05T22:58:57.605Z,13.07
2023-05-05T23:01:24.777Z,13.32
2023-05-05T23:03:52.003Z,13.36
2023-05-05T23:06:19.146Z,13.28
2023-05-05T23:08:46.357Z,13.31
2023-05-05T23:11:13.491Z,12.98
2023-05-05T23:13:40.799Z,12.62
2023-05-05T23:16:07.975Z,12.75
2023-05-05T23:18:36.211Z,12.81
2023-05-05T23:21:03.506Z,12.92
2023-05-05T23:23:31.264Z,13.08
2023-05-05T23:25:58.336Z,13.14
2023-05-05T23:28:25.507Z,13.17
2023-05-05T23:30:52.691Z,13.27
2023-05-05T23:33:19.912Z,13.51
2023-05-05T23:35:47.263Z,13.74
2023-05-05T23:38:14.298Z,14.16
2023-05-05T23:40:41.373Z,13.63
2023-05-05T23:43:08.465Z,12.77
2023-05-05T23:45:35.573Z,12.05
2023-05-05T23:48:02.672Z,11.67
2023-05-05T23:50:30.499Z,11.47
2023-05-05T23:52:57.667Z,10.96
2023-05-05T23:55:24.848Z,10.97
2023-05-05T23:57:53.231Z,11.27
